Time;durP1;ratioP1;P1;durP2;ratioP2;P2;SDS_P1;SDS_P2;PMS_P1;PMS_P2;Temp;Humidity;BMP_temperature;BMP_pressure;BME280_temperature;BME280_humidity;BME280_pressure;Samples;Min_cycle;Max_cycle;Signal;HPM_P1;HPM_P2
2023/10/08 00:02:14;;;;;;;11.07;3.53;;;13.40;99.90;;;;;;5003524;28;20229;-68
2023/10/08 00:04:40;;;;;;;8.83;3.90;;;13.30;99.90;;;;;;5003742;28;20268;-69
2023/10/08 00:07:08;;;;;;;9.60;3.67;;;13.40;99.90;;;;;;4995243;28;20292;-69
2023/10/08 00:09:36;;;;;;;7.73;3.57;;;13.40;99.90;;;;;;4998118;28;20177;-68
2023/10/08 00:12:03;;;;;;;10.83;4.13;;;13.50;99.90;;;;;;5008135;28;20184;-68
2023/10/08 00:14:29;;;;;;;7.93;3.50;;;13.50;99.90;;;;;;4992141;28;20613;-68
2023/10/08 00:16:55;;;;;;;13.47;4.07;;;13.60;99.90;;;;;;4999640;28;20208;-68
2023/10/08 00:19:21;;;;;;;7.73;3.37;;;13.60;99.90;;;;;;4991438;28;20255;-68
2023/10/08 00:21:48;;;;;;;8.43;3.90;;;13.70;99.90;;;;;;4998910;28;20236;-68
2023/10/08 00:24:15;;;;;;;7.57;3.63;;;13.70;99.90;;;;;;4999778;28;20180;-68
2023/10/08 00:26:40;;;;;;;8.13;4.07;;;13.70;99.90;;;;;;4999471;28;20193;-68
2023/10/08 00:29:21;;;;;;;9.27;4.17;;;13.70;99.90;;;;;;4992098;28;20185;-68
2023/10/08 00:31:49;;;;;;;8.70;3.17;;;13.80;99.90;;;;;;5003386;28;20659;-68
2023/10/08 00:34:15;;;;;;;13.93;4.20;;;13.80;99.90;;;;;;5007360;28;20216;-68
2023/10/08 00:36:42;;;;;;;9.17;3.77;;;13.90;99.90;;;;;;4991617;28;20229;-68
2023/10/08 00:39:13;;;;;;;14.57;4.20;;;13.90;99.90;;;;;;4990774;28;20271;-69
2023/10/08 00:41:42;;;;;;;7.07;3.83;;;13.90;99.90;;;;;;4999691;28;20201;-69
2023/10/08 00:44:12;;;;;;;7.70;3.33;;;13.90;99.90;;;;;;4992678;28;20203;-68
2023/10/08 00:46:49;;;;;;;8.93;3.40;;;13.90;99.90;;;;;;4997610;28;20232;-69
2023/10/08 00:57:26;;;;;;;9.93;3.43;;;14.00;99.90;;;;;;5006616;28;20210;-69
2023/10/08 00:59:53;;;;;;;7.43;3.30;;;14.00;99.90;;;;;;4998027;28;20575;-68
2023/10/08 01:02:24;;;;;;;6.83;3.53;;;14.00;99.90;;;;;;5010680;28;20208;-68
2023/10/08 01:04:54;;;;;;;10.03;3.40;;;14.00;99.90;;;;;;5003784;28;20648;-69
2023/10/08 01:07:20;;;;;;;11.30;3.87;;;14.00;99.90;;;;;;5001796;28;20227;-69
2023/10/08 01:09:59;;;;;;;10.67;4.13;;;13.90;99.90;;;;;;5001963;28;20177;-68
2023/10/08 01:12:33;;;;;;;7.03;3.33;;;13.90;99.90;;;;;;4990936;28;20177;-68
2023/10/08 01:15:23;;;;;;;7.30;3.60;;;13.90;99.90;;;;;;4991060;28;20189;-69
2023/10/08 01:18:00;;;;;;;7.87;3.40;;;13.90;99.90;;;;;;5010619;28;20204;-68
2023/10/08 01:20:36;;;;;;;9.93;3.33;;;13.90;99.90;;;;;;5006429;28;20293;-68
2023/10/08 01:23:10;;;;;;;8.90;3.60;;;13.90;99.90;;;;;;5007671;28;20181;-69
2023/10/08 01:25:37;;;;;;;9.30;3.60;;;13.80;99.90;;;;;;5010795;28;20182;-69
2023/10/08 01:28:20;;;;;;;13.30;3.43;;;13.80;99.90;;;;;;5009534;28;20200;-69
2023/10/08 01:30:47;;;;;;;7.67;3.33;;;13.80;99.90;;;;;;4996256;28;20180;-68
2023/10/08 01:33:15;;;;;;;8.17;3.77;;;13.70;99.90;;;;;;5002387;28;20180;-69
2023/10/08 01:35:41;;;;;;;9.93;3.50;;;13.70;99.90;;;;;;5002536;28;20188;-68
2023/10/08 01:38:09;;;;;;;9.47;4.10;;;13.70;99.90;;;;;;5010228;28;20204;-68
2023/10/08 01:40:35;;;;;;;7.10;3.30;;;13.70;99.90;;;;;;4993807;28;20559;-69
2023/10/08 01:43:00;;;;;;;9.50;3.80;;;13.60;99.90;;;;;;5009248;28;20184;-68
2023/10/08 01:45:26;;;;;;;7.43;3.53;;;13.70;99.90;;;;;;4998815;28;20169;-69
2023/10/08 01:47:54;;;;;;;9.77;3.30;;;13.60;99.90;;;;;;4991621;28;20216;-68
2023/10/08 01:50:27;;;;;;;8.80;3.00;;;13.60;99.90;;;;;;4984110;28;20185;-69
2023/10/08 01:52:53;;;;;;;11.87;3.50;;;13.60;99.90;;;;;;5002139;28;20643;-69
2023/10/08 01:55:19;;;;;;;8.90;3.30;;;13.60;99.90;;;;;;5007337;28;20193;-69
2023/10/08 01:57:46;;;;;;;9.33;3.70;;;13.60;99.90;;;;;;4990581;28;20200;-68
2023/10/08 02:00:14;;;;;;;8.50;3.47;;;13.60;99.90;;;;;;5007763;28;20208;-68
2023/10/08 02:02:40;;;;;;;9.83;3.57;;;13.60;99.90;;;;;;5010237;28;20263;-68
2023/10/08 02:05:06;;;;;;;8.67;3.97;;;13.70;99.90;;;;;;4992836;28;20565;-68
2023/10/08 02:07:33;;;;;;;7.60;3.43;;;13.70;99.90;;;;;;4998534;28;20216;-68
2023/10/08 02:09:59;;;;;;;12.33;3.70;;;13.70;99.90;;;;;;4990093;28;20194;-68
2023/10/08 02:12:25;;;;;;;13.57;3.63;;;13.70;99.90;;;;;;5002116;28;20177;-69
2023/10/08 02:14:51;;;;;;;8.70;3.20;;;13.70;99.90;;;;;;4996756;28;20208;-69
2023/10/08 02:17:17;;;;;;;9.13;3.80;;;13.70;99.90;;;;;;4997710;28;20292;-69
2023/10/08 02:19:43;;;;;;;9.60;3.30;;;13.60;99.90;;;;;;5003740;28;20212;-68
2023/10/08 02:22:11;;;;;;;9.47;3.33;;;13.70;99.90;;;;;;5001776;28;20233;-69
2023/10/08 02:24:37;;;;;;;11.00;3.40;;;13.60;99.90;;;;;;5013918;28;20542;-69
2023/10/08 02:27:03;;;;;;;7.83;3.73;;;13.60;99.90;;;;;;4989073;28;20296;-69
2023/10/08 02:29:30;;;;;;;9.57;3.80;;;13.60;99.90;;;;;;5005692;28;20662;-67
2023/10/08 02:31:56;;;;;;;7.13;3.40;;;13.60;99.90;;;;;;5006062;28;20193;-69
2023/10/08 02:34:22;;;;;;;6.83;3.23;;;13.60;99.90;;;;;;5013124;28;20185;-69
2023/10/08 02:36:48;;;;;;;9.10;3.53;;;13.50;99.90;;;;;;5005403;28;20215;-68
2023/10/08 02:39:21;;;;;;;9.50;3.93;;;13.40;99.90;;;;;;5011418;28;20184;-69
2023/10/08 02:41:48;;;;;;;10.50;3.43;;;13.50;99.90;;;;;;4991155;28;20695;-69
2023/10/08 02:44:16;;;;;;;14.03;3.90;;;13.40;99.90;;;;;;5001847;28;20217;-68
2023/10/08 02:46:47;;;;;;;11.30;4.10;;;13.40;99.90;;;;;;5001762;28;20208;-68
2023/10/08 02:49:25;;;;;;;10.10;3.67;;;13.50;99.90;;;;;;5009211;28;20858;-68
2023/10/08 02:51:53;;;;;;;13.33;3.83;;;13.40;99.90;;;;;;5001899;28;20189;-69
2023/10/08 02:54:22;;;;;;;15.67;3.70;;;13.40;99.90;;;;;;5012469;28;20184;-69
2023/10/08 02:56:51;;;;;;;7.97;3.20;;;13.40;99.90;;;;;;4990803;28;20613;-68
2023/10/08 02:59:23;;;;;;;7.80;3.33;;;13.40;99.90;;;;;;5000004;28;20188;-69
2023/10/08 03:01:49;;;;;;;12.77;3.70;;;13.40;99.90;;;;;;5008104;28;20583;-68
2023/10/08 03:04:18;;;;;;;10.17;3.57;;;13.40;99.90;;;;;;5010650;28;20184;-68
2023/10/08 03:06:50;;;;;;;12.63;3.70;;;13.40;99.90;;;;;;5007296;28;20204;-68
2023/10/08 03:09:20;;;;;;;13.50;4.37;;;13.40;99.90;;;;;;5002002;28;20177;-68
2023/10/08 03:11:48;;;;;;;9.03;3.93;;;13.40;99.90;;;;;;5007825;28;20520;-69
2023/10/08 03:14:21;;;;;;;8.57;3.57;;;13.50;99.90;;;;;;5012920;28;20216;-69
2023/10/08 03:16:51;;;;;;;10.50;3.67;;;13.50;99.90;;;;;;5012719;28;20217;-68
2023/10/08 03:19:20;;;;;;;11.47;3.40;;;13.60;99.90;;;;;;4995701;28;20256;-69
2023/10/08 03:21:55;;;;;;;9.07;3.50;;;13.60;99.90;;;;;;5004520;28;20215;-68
2023/10/08 03:27:06;;;;;;;8.67;3.27;;;13.70;99.90;;;;;;5000988;28;20247;-69
2023/10/08 03:29:44;;;;;;;10.23;4.07;;;13.70;99.90;;;;;;4993198;28;20200;-68
2023/10/08 03:32:17;;;;;;;11.07;3.57;;;13.80;99.90;;;;;;5000930;28;20187;-68
2023/10/08 03:34:49;;;;;;;10.07;3.70;;;13.70;99.90;;;;;;4992357;28;20204;-68
2023/10/08 03:37:21;;;;;;;9.83;3.50;;;13.70;99.90;;;;;;4991365;28;20264;-69
2023/10/08 03:40:00;;;;;;;9.33;3.53;;;13.70;99.90;;;;;;4992107;28;20181;-69
2023/10/08 03:42:39;;;;;;;10.23;3.80;;;13.60;99.90;;;;;;4992996;28;20208;-68
2023/10/08 03:45:12;;;;;;;10.13;3.50;;;13.60;99.90;;;;;;5001206;28;20195;-68
2023/10/08 03:47:39;;;;;;;8.93;3.80;;;13.50;99.90;;;;;;5002789;28;20355;-68
2023/10/08 03:50:09;;;;;;;10.17;3.67;;;13.50;99.90;;;;;;4994532;28;20188;-68
2023/10/08 03:52:38;;;;;;;9.17;3.97;;;13.40;99.90;;;;;;5000848;28;20320;-68
2023/10/08 03:55:21;;;;;;;8.77;3.83;;;13.40;99.90;;;;;;5008520;28;20211;-69
2023/10/08 03:57:56;;;;;;;7.17;3.40;;;13.40;99.90;;;;;;5000496;28;20654;-68
2023/10/08 04:00:31;;;;;;;10.37;3.80;;;13.40;99.90;;;;;;4983414;28;20231;-69
2023/10/08 04:03:07;;;;;;;8.90;3.53;;;13.40;99.90;;;;;;4992436;28;20607;-68
2023/10/08 04:05:59;;;;;;;9.03;3.67;;;13.40;99.90;;;;;;4993277;28;20180;-68
2023/10/08 04:08:39;;;;;;;9.57;4.00;;;13.40;99.90;;;;;;4999783;28;20228;-68
2023/10/08 04:11:08;;;;;;;8.67;4.10;;;13.30;99.90;;;;;;5000664;28;20211;-68
2023/10/08 04:13:39;;;;;;;7.43;3.60;;;13.30;99.90;;;;;;4999171;28;20201;-68
2023/10/08 04:16:04;;;;;;;10.97;4.00;;;13.30;99.90;;;;;;4992049;28;20272;-68
2023/10/08 04:18:32;;;;;;;8.10;3.70;;;13.30;99.90;;;;;;4991742;28;20724;-69
2023/10/08 04:21:04;;;;;;;8.73;3.83;;;13.30;99.90;;;;;;4999209;28;20290;-69
2023/10/08 04:23:30;;;;;;;11.77;4.23;;;13.30;99.90;;;;;;4991728;28;20174;-68
2023/10/08 04:25:55;;;;;;;12.93;4.37;;;13.30;99.90;;;;;;4992015;28;20188;-69
2023/10/08 04:28:22;;;;;;;14.53;4.60;;;13.30;99.90;;;;;;4994227;28;20232;-69
2023/10/08 04:30:48;;;;;;;10.43;4.40;;;13.40;99.90;;;;;;5010890;28;20667;-68
2023/10/08 04:33:14;;;;;;;11.67;4.70;;;13.40;99.90;;;;;;5009529;28;20176;-68
2023/10/08 04:36:07;;;;;;;14.20;3.70;;;13.40;99.90;;;;;;4999362;28;20255;-68
2023/10/08 04:38:36;;;;;;;11.10;4.47;;;13.50;99.90;;;;;;4991835;28;20245;-68
2023/10/08 04:41:08;;;;;;;11.67;4.07;;;13.50;99.90;;;;;;4991485;28;20205;-68
2023/10/08 04:43:37;;;;;;;9.67;3.80;;;13.60;99.90;;;;;;4999849;28;20169;-69
2023/10/08 04:46:19;;;;;;;9.37;4.07;;;13.60;99.90;;;;;;4991241;28;20670;-68
2023/10/08 04:48:49;;;;;;;11.47;4.10;;;13.60;99.90;;;;;;5010383;28;20200;-68
2023/10/08 04:51:17;;;;;;;8.50;4.17;;;13.70;99.90;;;;;;4991783;28;20251;-68
2023/10/08 04:53:45;;;;;;;13.23;3.80;;;13.80;99.90;;;;;;4991713;28;20632;-68
2023/10/08 04:56:18;;;;;;;8.43;3.80;;;13.80;99.90;;;;;;4999388;28;20189;-69
2023/10/08 04:58:48;;;;;;;13.33;4.40;;;13.80;99.90;;;;;;4998715;28;20224;-68
2023/10/08 05:01:17;;;;;;;11.90;4.03;;;13.80;99.90;;;;;;5007388;28;20239;-68
2023/10/08 05:06:50;;;;;;;10.23;4.13;;;13.90;99.90;;;;;;4991298;28;20188;-69
2023/10/08 05:11:56;;;;;;;8.37;4.27;;;13.90;99.90;;;;;;5002899;28;20224;-69
2023/10/08 05:30:37;;;;;;;9.97;4.07;;;14.30;99.90;;;;;;4991974;28;20222;-69
2023/10/08 05:38:16;;;;;;;10.90;4.97;;;14.20;99.90;;;;;;4992886;28;20263;-69
2023/10/08 05:43:55;;;;;;;14.27;4.30;;;14.20;99.90;;;;;;4993905;28;20191;-69
2023/10/08 05:52:13;;;;;;;11.13;4.40;;;14.20;99.90;;;;;;4991871;28;20227;-69
2023/10/08 05:57:51;;;;;;;10.80;4.10;;;14.30;99.90;;;;;;4998020;28;20240;-69
2023/10/08 06:07:55;;;;;;;11.57;4.03;;;14.40;99.90;;;;;;4995106;28;20220;-68
2023/10/08 06:18:29;;;;;;;11.33;3.73;;;14.50;99.90;;;;;;4993673;28;20290;-69
2023/10/08 06:20:55;;;;;;;15.00;4.27;;;14.60;99.90;;;;;;5008149;28;20853;-69
2023/10/08 06:23:25;;;;;;;12.23;3.83;;;14.60;99.90;;;;;;4994380;28;20208;-69
2023/10/08 06:25:58;;;;;;;9.60;4.00;;;14.70;99.90;;;;;;5006828;28;20266;-69
2023/10/08 06:28:27;;;;;;;12.80;4.07;;;14.60;99.90;;;;;;4996445;28;20212;-69
2023/10/08 06:30:55;;;;;;;8.83;3.60;;;14.60;99.90;;;;;;5012718;28;20270;-69
2023/10/08 06:33:22;;;;;;;10.67;4.33;;;14.60;99.90;;;;;;5004834;28;20275;-69
2023/10/08 06:38:44;;;;;;;12.27;4.50;;;14.70;99.90;;;;;;4995376;28;20274;-69
2023/10/08 06:43:42;;;;;;;13.63;3.83;;;14.80;99.90;;;;;;5006501;28;20215;-68
2023/10/08 06:46:12;;;;;;;11.93;3.97;;;14.80;99.90;;;;;;5004323;28;20191;-69
2023/10/08 06:48:41;;;;;;;11.73;3.83;;;14.80;99.90;;;;;;5003720;28;20212;-69
2023/10/08 06:51:14;;;;;;;12.53;4.27;;;14.80;99.90;;;;;;5003906;28;20710;-69
2023/10/08 06:53:45;;;;;;;11.33;4.10;;;14.90;99.90;;;;;;4997933;28;20577;-69
2023/10/08 06:56:13;;;;;;;10.40;3.57;;;14.90;99.90;;;;;;5004697;28;20231;-69
2023/10/08 06:58:43;;;;;;;10.90;3.80;;;14.90;99.90;;;;;;5003825;28;20211;-68
2023/10/08 07:01:08;;;;;;;14.67;4.23;;;14.90;99.90;;;;;;5011542;28;20207;-68
2023/10/08 07:03:37;;;;;;;11.53;3.90;;;14.90;99.90;;;;;;4992195;28;20181;-68
2023/10/08 07:06:16;;;;;;;11.57;4.27;;;15.00;99.90;;;;;;5008807;28;20187;-67
2023/10/08 07:08:43;;;;;;;10.10;4.30;;;15.00;99.90;;;;;;4997346;28;20298;-68
2023/10/08 07:11:11;;;;;;;27.50;4.33;;;15.10;99.90;;;;;;5003243;28;20199;-68
2023/10/08 07:13:39;;;;;;;12.57;4.63;;;15.20;99.90;;;;;;5004347;28;20176;-69
2023/10/08 07:16:11;;;;;;;15.80;4.20;;;15.40;99.90;;;;;;5010699;28;20230;-68
2023/10/08 07:18:37;;;;;;;11.77;4.27;;;15.50;99.90;;;;;;5000312;28;20204;-69
2023/10/08 07:21:04;;;;;;;11.77;4.50;;;15.60;99.90;;;;;;5007260;28;20239;-69
2023/10/08 07:23:34;;;;;;;11.87;4.63;;;15.70;99.90;;;;;;5012211;28;20212;-69
2023/10/08 07:26:11;;;;;;;16.40;4.20;;;15.70;99.90;;;;;;4994863;28;20204;-68
2023/10/08 07:28:39;;;;;;;11.73;4.40;;;15.80;99.90;;;;;;4989573;28;20208;-67
2023/10/08 07:31:20;;;;;;;7.43;3.90;;;15.90;99.90;;;;;;4995030;28;20185;-69
2023/10/08 07:33:56;;;;;;;11.83;4.33;;;15.90;99.90;;;;;;4994720;28;20633;-69
2023/10/08 07:36:23;;;;;;;13.07;3.90;;;16.00;99.90;;;;;;4992265;28;20189;-69
2023/10/08 07:38:49;;;;;;;14.93;4.17;;;16.00;99.90;;;;;;5005919;28;20184;-69
2023/10/08 07:41:14;;;;;;;9.43;4.20;;;16.10;99.90;;;;;;5008260;28;20215;-69
2023/10/08 07:43:43;;;;;;;15.13;4.23;;;16.20;99.90;;;;;;4993798;28;20189;-68
2023/10/08 07:46:10;;;;;;;13.47;4.47;;;16.30;99.90;;;;;;5008106;28;20195;-69
2023/10/08 07:48:36;;;;;;;14.03;4.20;;;16.30;99.90;;;;;;5004313;28;20204;-70
2023/10/08 07:51:02;;;;;;;20.60;5.07;;;16.30;99.90;;;;;;5003363;28;20192;-69
2023/10/08 07:53:37;;;;;;;15.67;4.90;;;16.40;99.90;;;;;;5008257;28;20188;-70
2023/10/08 07:56:06;;;;;;;13.77;4.47;;;16.40;99.90;;;;;;5005120;28;20191;-70
2023/10/08 07:58:35;;;;;;;11.97;4.50;;;16.50;99.90;;;;;;4984028;28;20810;-70
2023/10/08 08:01:06;;;;;;;13.23;4.97;;;16.50;99.90;;;;;;5007426;28;20263;-69
2023/10/08 08:03:40;;;;;;;14.67;5.23;;;16.60;99.90;;;;;;4994857;28;20176;-70
2023/10/08 08:06:07;;;;;;;16.53;5.80;;;16.60;99.90;;;;;;5003200;28;20184;-71
2023/10/08 08:08:34;;;;;;;15.33;5.63;;;16.60;99.90;;;;;;4999023;28;20228;-69
2023/10/08 08:11:17;;;;;;;12.77;5.33;;;16.50;99.90;;;;;;4999492;28;20688;-69
2023/10/08 08:13:44;;;;;;;19.70;6.17;;;16.50;99.90;;;;;;4998895;28;20211;-67
2023/10/08 08:16:17;;;;;;;25.33;7.87;;;16.50;99.90;;;;;;5002917;28;20318;-70
2023/10/08 08:18:43;;;;;;;22.40;7.17;;;16.80;99.90;;;;;;4997119;28;20204;-68
2023/10/08 08:21:14;;;;;;;24.80;7.10;;;16.90;99.90;;;;;;5008083;28;20233;-69
2023/10/08 08:23:49;;;;;;;20.97;7.47;;;17.00;99.90;;;;;;4998229;28;20177;-70
2023/10/08 08:26:26;;;;;;;16.53;7.13;;;17.10;99.90;;;;;;5009048;28;20307;-69
2023/10/08 08:28:57;;;;;;;20.40;7.40;;;17.10;99.90;;;;;;5010377;28;20263;-71
2023/10/08 08:31:24;;;;;;;16.20;7.50;;;17.20;99.90;;;;;;5010615;28;20322;-70
2023/10/08 08:33:53;;;;;;;23.07;7.77;;;17.20;99.90;;;;;;5004657;28;20649;-72
2023/10/08 08:36:22;;;;;;;22.83;8.07;;;17.20;99.90;;;;;;5001337;28;20185;-71
2023/10/08 08:38:47;;;;;;;23.27;8.57;;;17.10;99.90;;;;;;4990316;28;20255;-71
2023/10/08 08:41:17;;;;;;;31.20;9.47;;;17.20;99.90;;;;;;4996862;28;20694;-71
2023/10/08 08:43:44;;;;;;;22.03;9.27;;;17.10;99.90;;;;;;5004510;28;20203;-69
2023/10/08 08:46:13;;;;;;;26.97;9.93;;;17.10;99.90;;;;;;5009911;28;20184;-70
2023/10/08 08:48:46;;;;;;;22.40;9.17;;;17.10;99.90;;;;;;5003192;28;20286;-70
2023/10/08 08:51:12;;;;;;;22.47;8.80;;;17.10;99.90;;;;;;5009469;28;20192;-70
2023/10/08 08:53:38;;;;;;;20.30;8.73;;;17.20;99.90;;;;;;4999010;28;20557;-69
2023/10/08 08:56:09;;;;;;;23.57;8.80;;;17.30;99.90;;;;;;5007011;28;20188;-69
2023/10/08 08:58:36;;;;;;;22.13;8.07;;;17.80;99.90;;;;;;4995426;28;20714;-70
2023/10/08 09:01:05;;;;;;;23.37;8.63;;;18.30;99.90;;;;;;5001186;28;20304;-71
2023/10/08 09:03:30;;;;;;;22.53;7.97;;;18.50;99.90;;;;;;4994483;28;20181;-69
2023/10/08 09:05:59;;;;;;;23.10;7.73;;;18.70;99.90;;;;;;5002232;28;20560;-71
2023/10/08 09:08:42;;;;;;;18.23;7.10;;;18.60;99.90;;;;;;5009887;28;20220;-71
2023/10/08 09:11:08;;;;;;;24.73;6.83;;;18.70;99.90;;;;;;4992793;28;20255;-71
2023/10/08 09:13:34;;;;;;;23.37;7.37;;;19.00;99.90;;;;;;4997026;28;20185;-74
2023/10/08 09:16:14;;;;;;;22.13;7.53;;;19.10;99.90;;;;;;5021621;28;20558;-71
2023/10/08 09:18:43;;;;;;;23.97;7.60;;;19.50;99.90;;;;;;5009716;28;20196;-69
2023/10/08 09:21:11;;;;;;;23.47;8.00;;;19.90;99.90;;;;;;5010509;28;20375;-72
2023/10/08 09:23:43;;;;;;;27.03;8.30;;;20.00;99.90;;;;;;5003316;28;20188;-76
2023/10/08 09:26:14;;;;;;;26.27;7.83;;;19.90;99.90;;;;;;5002652;28;20185;-75
2023/10/08 09:28:46;;;;;;;20.97;7.13;;;19.80;99.90;;;;;;5009414;28;20291;-75
2023/10/08 09:31:12;;;;;;;22.67;7.13;;;19.80;99.90;;;;;;5009374;28;20514;-71
2023/10/08 09:33:39;;;;;;;16.93;6.90;;;19.70;99.90;;;;;;4990594;28;20255;-70
2023/10/08 09:36:05;;;;;;;25.03;7.83;;;19.80;99.90;;;;;;4990965;28;20195;-70
2023/10/08 09:38:33;;;;;;;21.87;7.73;;;19.70;99.90;;;;;;5003166;28;20202;-70
2023/10/08 09:41:02;;;;;;;19.73;7.77;;;19.50;99.90;;;;;;4992904;28;20207;-70
2023/10/08 09:43:28;;;;;;;19.13;7.13;;;19.40;99.90;;;;;;5001439;28;20192;-70
2023/10/08 09:46:15;;;;;;;17.87;6.73;;;19.40;99.90;;;;;;5003328;28;20181;-70
2023/10/08 09:48:44;;;;;;;23.07;6.73;;;19.20;99.90;;;;;;4989672;28;20240;-68
2023/10/08 09:51:12;;;;;;;23.23;6.77;;;19.10;99.90;;;;;;4998360;28;20280;-71
2023/10/08 09:54:04;;;;;;;31.80;11.87;;;19.10;99.90;;;;;;5004198;28;20181;-70
2023/10/08 09:56:31;;;;;;;17.37;7.10;;;19.20;99.90;;;;;;5008449;28;20184;-68
2023/10/08 09:58:57;;;;;;;20.97;6.87;;;19.30;99.90;;;;;;5000977;28;20991;-70
2023/10/08 10:01:24;;;;;;;19.37;7.20;;;19.30;99.90;;;;;;5011383;28;20215;-70
2023/10/08 10:03:51;;;;;;;17.70;7.30;;;19.30;99.90;;;;;;4996287;28;20192;-70
2023/10/08 10:06:18;;;;;;;22.03;7.60;;;19.40;99.90;;;;;;5006463;28;20192;-69
2023/10/08 10:08:45;;;;;;;20.40;7.27;;;19.60;99.90;;;;;;5000789;28;20232;-70
2023/10/08 10:11:11;;;;;;;17.47;6.10;;;19.60;99.90;;;;;;4993404;28;20189;-69
2023/10/08 10:13:49;;;;;;;16.53;5.80;;;19.50;99.90;;;;;;5009684;28;20188;-69
2023/10/08 10:16:21;;;;;;;18.17;7.17;;;19.60;99.90;;;;;;5006885;28;20188;-70
2023/10/08 10:18:49;;;;;;;19.07;7.07;;;19.50;99.90;;;;;;4997275;28;20201;-70
2023/10/08 10:21:15;;;;;;;17.73;7.13;;;19.30;99.90;;;;;;4997613;28;20211;-71
2023/10/08 10:23:44;;;;;;;21.87;6.57;;;19.20;99.90;;;;;;4989850;28;20184;-71
2023/10/08 10:26:30;;;;;;;18.40;7.60;;;19.20;99.90;;;;;;4990313;28;20193;-71
2023/10/08 10:29:07;;;;;;;19.13;7.00;;;19.40;99.90;;;;;;4994041;28;20217;-70
2023/10/08 10:31:36;;;;;;;22.63;7.57;;;19.50;99.90;;;;;;4990218;28;20605;-70
2023/10/08 10:34:08;;;;;;;16.53;6.23;;;19.60;99.90;;;;;;4989935;28;20185;-69
2023/10/08 10:36:34;;;;;;;16.27;6.83;;;19.60;99.90;;;;;;4993889;28;20188;-70
2023/10/08 10:39:01;;;;;;;17.23;6.20;;;19.70;99.90;;;;;;4999512;28;20230;-71
2023/10/08 10:41:27;;;;;;;16.63;6.70;;;19.70;99.90;;;;;;4998071;28;20208;-72
2023/10/08 10:43:53;;;;;;;15.27;6.77;;;19.70;99.90;;;;;;4998081;28;20173;-73
2023/10/08 10:46:30;;;;;;;17.63;6.77;;;19.70;99.90;;;;;;5000457;28;20188;-72
2023/10/08 10:51:41;;;;;;;22.47;8.63;;;19.90;99.90;;;;;;5017915;28;20666;-69
2023/10/08 10:54:10;;;;;;;20.57;7.10;;;20.00;99.90;;;;;;5012880;28;20208;-70
2023/10/08 10:56:43;;;;;;;17.57;6.63;;;20.20;99.90;;;;;;5004457;28;20660;-69
2023/10/08 10:59:27;;;;;;;22.20;6.83;;;20.20;99.90;;;;;;4995822;28;20530;-68
2023/10/08 11:01:55;;;;;;;19.07;7.50;;;20.50;99.90;;;;;;5004585;28;20204;-70
2023/10/08 11:04:28;;;;;;;20.60;6.97;;;20.50;99.90;;;;;;5004811;28;20178;-69
2023/10/08 11:06:58;;;;;;;18.50;6.80;;;20.50;99.90;;;;;;5005128;28;20691;-69
2023/10/08 11:09:37;;;;;;;23.83;7.73;;;20.50;99.90;;;;;;5002568;28;20173;-69
2023/10/08 11:12:11;;;;;;;20.27;7.53;;;20.70;99.90;;;;;;5001377;28;20184;-70
2023/10/08 11:14:43;;;;;;;17.83;7.13;;;20.70;99.90;;;;;;4980723;28;20193;-72
2023/10/08 11:17:33;;;;;;;20.67;6.87;;;20.80;99.90;;;;;;5006225;28;20699;-72
2023/10/08 11:19:58;;;;;;;17.83;7.63;;;21.10;99.90;;;;;;5003517;28;20185;-69
2023/10/08 11:22:42;;;;;;;15.20;7.73;;;21.30;99.90;;;;;;4992394;28;20240;-70
2023/10/08 11:25:24;;;;;;;20.63;8.67;;;21.50;99.90;;;;;;5000310;28;20177;-70
2023/10/08 11:27:58;;;;;;;25.57;7.50;;;21.30;99.90;;;;;;4994984;28;20196;-69
2023/10/08 11:30:24;;;;;;;25.97;7.43;;;21.50;99.90;;;;;;5010936;28;20176;-69
2023/10/08 11:32:50;;;;;;;20.07;7.77;;;21.40;99.90;;;;;;5006127;28;20570;-69
2023/10/08 11:35:16;;;;;;;18.17;7.17;;;21.30;99.90;;;;;;4993480;28;20672;-70
2023/10/08 11:37:50;;;;;;;17.23;7.00;;;21.30;99.90;;;;;;5011992;28;20196;-70
2023/10/08 11:40:28;;;;;;;17.50;7.50;;;21.40;99.90;;;;;;4994969;28;20208;-70
2023/10/08 11:42:58;;;;;;;18.63;8.00;;;21.20;99.90;;;;;;5005260;28;20267;-70
2023/10/08 11:45:26;;;;;;;21.67;7.57;;;21.20;99.90;;;;;;5010622;28;20258;-70
2023/10/08 11:47:55;;;;;;;21.23;6.70;;;21.20;99.90;;;;;;5012240;28;20203;-69
2023/10/08 11:50:31;;;;;;;22.63;7.73;;;21.30;99.90;;;;;;5008029;28;20185;-70
2023/10/08 11:53:02;;;;;;;21.33;7.43;;;21.30;99.90;;;;;;5004894;28;20243;-69
2023/10/08 11:55:29;;;;;;;18.03;7.50;;;21.20;99.90;;;;;;5007600;28;20169;-69
2023/10/08 11:57:55;;;;;;;19.40;6.93;;;21.20;99.90;;;;;;4999950;28;20244;-70
2023/10/08 12:00:24;;;;;;;21.93;6.90;;;21.30;99.90;;;;;;5009346;28;20172;-70
2023/10/08 12:02:54;;;;;;;17.90;7.37;;;21.20;99.90;;;;;;5011572;28;20745;-71
2023/10/08 12:05:20;;;;;;;20.57;7.17;;;21.30;99.90;;;;;;5011112;28;20177;-71
2023/10/08 12:07:47;;;;;;;21.60;7.70;;;21.30;99.90;;;;;;5011322;28;20217;-70
2023/10/08 12:10:13;;;;;;;17.17;6.60;;;21.40;99.90;;;;;;5002553;28;20176;-71
2023/10/08 12:12:40;;;;;;;22.67;7.13;;;21.30;99.90;;;;;;5002780;28;20194;-70
2023/10/08 12:15:09;;;;;;;22.00;7.40;;;21.40;99.90;;;;;;4996340;28;20207;-71
2023/10/08 12:17:39;;;;;;;19.77;7.83;;;21.50;99.90;;;;;;4990780;28;20200;-69
2023/10/08 12:20:22;;;;;;;18.10;7.07;;;21.50;99.90;;;;;;4998599;28;20176;-71
2023/10/08 12:22:51;;;;;;;19.93;6.83;;;21.50;99.90;;;;;;5006599;28;20208;-71
2023/10/08 12:25:16;;;;;;;21.30;7.30;;;21.30;99.90;;;;;;5000655;28;20271;-70
2023/10/08 12:27:43;;;;;;;16.30;7.00;;;21.30;99.90;;;;;;4994616;28;20331;-69
2023/10/08 12:30:10;;;;;;;17.67;7.00;;;21.20;99.90;;;;;;4993614;28;20204;-70
2023/10/08 12:32:37;;;;;;;15.50;6.77;;;21.10;99.90;;;;;;4995058;28;20188;-71
2023/10/08 12:35:03;;;;;;;17.30;7.20;;;21.20;99.90;;;;;;5003099;28;20272;-71
2023/10/08 12:37:30;;;;;;;20.87;7.13;;;21.10;99.90;;;;;;5010054;28;20219;-70
2023/10/08 12:40:11;;;;;;;21.63;7.43;;;21.00;99.90;;;;;;5002327;28;20191;-71
2023/10/08 12:42:38;;;;;;;28.87;11.00;;;20.80;99.90;;;;;;4991864;28;20680;-71
2023/10/08 12:45:12;;;;;;;19.90;7.53;;;20.80;99.90;;;;;;5006866;28;20187;-72
2023/10/08 12:47:42;;;;;;;21.30;7.73;;;20.80;99.90;;;;;;5003048;28;20630;-69
2023/10/08 12:50:08;;;;;;;18.30;7.10;;;20.80;99.90;;;;;;5009447;28;20231;-69
2023/10/08 12:52:39;;;;;;;14.30;6.37;;;20.90;99.90;;;;;;4994334;28;20197;-70
2023/10/08 12:55:06;;;;;;;20.93;7.40;;;21.00;99.90;;;;;;5010445;28;20343;-70
2023/10/08 12:57:32;;;;;;;19.73;7.90;;;21.20;99.90;;;;;;5025000;28;20204;-70
2023/10/08 12:59:59;;;;;;;15.50;7.20;;;21.30;99.90;;;;;;5009763;28;20180;-69
2023/10/08 13:02:28;;;;;;;18.83;7.33;;;21.50;99.90;;;;;;5010038;28;20208;-70
2023/10/08 13:04:58;;;;;;;19.50;7.53;;;21.60;99.90;;;;;;4995979;28;20189;-73
2023/10/08 13:07:26;;;;;;;17.80;7.27;;;21.70;99.90;;;;;;4997791;28;20216;-70
2023/10/08 13:09:52;;;;;;;20.65;8.55;;;21.70;99.90;;;;;;5003502;28;20426;-74
2023/10/08 13:12:17;;;;;;;12.67;4.67;;;21.70;99.90;;;;;;4993966;28;20184;-71
2023/10/08 13:14:44;;;;;;;9.43;4.17;;;21.30;99.90;;;;;;5005323;28;20559;-70
2023/10/08 13:17:10;;;;;;;7.47;3.20;;;20.80;99.90;;;;;;5006459;28;20203;-70
2023/10/08 13:19:37;;;;;;;11.67;3.93;;;20.60;99.90;;;;;;5001698;28;20176;-69
2023/10/08 13:22:06;;;;;;;10.33;3.50;;;20.70;99.90;;;;;;5002788;28;20574;-70
2023/10/08 13:24:32;;;;;;;7.23;3.10;;;20.80;99.90;;;;;;5001739;28;20181;-70
2023/10/08 13:26:59;;;;;;;9.70;2.83;;;21.00;99.90;;;;;;4993813;28;20572;-70
2023/10/08 13:29:26;;;;;;;7.20;2.43;;;21.00;99.90;;;;;;5006552;28;20184;-70
2023/10/08 13:31:54;;;;;;;7.70;2.63;;;21.00;99.90;;;;;;5003966;28;20228;-70
2023/10/08 13:34:21;;;;;;;8.40;2.57;;;20.90;99.90;;;;;;5004802;28;20208;-70
2023/10/08 13:36:49;;;;;;;7.47;2.50;;;20.80;99.90;;;;;;4995445;28;20676;-70
2023/10/08 13:39:18;;;;;;;8.30;2.60;;;20.60;99.90;;;;;;5000919;28;20207;-70
2023/10/08 13:41:47;;;;;;;5.93;2.50;;;20.50;99.90;;;;;;4997001;28;20276;-71
2023/10/08 13:44:14;;;;;;;26.73;11.40;;;20.60;99.90;;;;;;4990125;28;20181;-71
2023/10/08 13:46:44;;;;;;;7.20;3.00;;;20.60;99.90;;;;;;4994300;28;20173;-70
2023/10/08 13:49:10;;;;;;;8.03;2.53;;;20.50;99.90;;;;;;5008707;28;20234;-70
2023/10/08 13:51:37;;;;;;;5.77;2.00;;;20.50;99.90;;;;;;4997945;28;20249;-69
2023/10/08 13:54:06;;;;;;;7.20;2.40;;;20.30;99.90;;;;;;4996481;28;20181;-70
2023/10/08 13:56:33;;;;;;;9.07;1.90;;;20.20;99.90;;;;;;4993144;28;20663;-70
2023/10/08 13:59:14;;;;;;;7.87;2.10;;;20.30;99.90;;;;;;5008941;28;20176;-70
2023/10/08 14:01:51;;;;;;;4.73;2.37;;;20.00;99.90;;;;;;4975036;28;20193;-71
2023/10/08 14:04:19;;;;;;;10.60;2.30;;;19.60;99.90;;;;;;5007370;28;20259;-70
2023/10/08 14:06:51;;;;;;;4.60;2.33;;;19.50;99.90;;;;;;4993245;28;20184;-69
2023/10/08 14:09:36;;;;;;;8.07;1.73;;;19.60;99.90;;;;;;5007802;28;20181;-72